createdAt,value
2018-12-29T00:01:08.113Z,32.97
2018-12-29T00:03:36.314Z,36.30
2018-12-29T00:06:04.837Z,32.13
2018-12-29T00:08:33.087Z,33.73
2018-12-29T00:11:01.232Z,33.20
2018-12-29T00:13:29.367Z,31.93
2018-12-29T00:15:57.545Z,36.57
2018-12-29T00:18:25.747Z,30.93
2018-12-29T00:20:54.221Z,28.67
2018-12-29T00:23:22.693Z,33.43
2018-12-29T00:25:51.188Z,36.90
2018-12-29T00:28:19.367Z,27.60
2018-12-29T00:30:47.523Z,30.70
2018-12-29T00:33:15.661Z,26.03
2018-12-29T00:35:44.186Z,29.10
2018-12-29T00:38:12.319Z,28.10
2018-12-29T00:40:40.455Z,27.47
2018-12-29T00:43:08.638Z,29.60
2018-12-29T00:45:37.116Z,33.67
2018-12-29T00:48:05.285Z,28.57
2018-12-29T00:50:33.866Z,31.03
2018-12-29T00:53:02.042Z,30.90
2018-12-29T00:55:30.201Z,30.20
2018-12-29T00:57:58.329Z,29.37
2018-12-29T01:00:26.578Z,27.77
2018-12-29T01:02:54.707Z,30.03
2018-12-29T01:05:22.866Z,31.23
2018-12-29T01:07:51.364Z,55.97
2018-12-29T01:10:19.930Z,32.00
2018-12-29T01:12:48.406Z,30.33
2018-12-29T01:15:16.551Z,35.47
2018-12-29T01:17:45.093Z,32.80
2018-12-29T01:20:13.251Z,31.73
2018-12-29T01:22:41.442Z,33.07
2018-12-29T01:25:09.984Z,37.47
2018-12-29T01:27:38.466Z,34.53
2018-12-29T01:30:06.888Z,32.20
2018-12-29T01:32:35.347Z,30.97
2018-12-29T01:35:04.036Z,34.93
2018-12-29T01:37:32.245Z,32.70
2018-12-29T01:40:00.406Z,34.97
2018-12-29T01:42:28.922Z,34.80
2018-12-29T01:44:57.072Z,32.50
2018-12-29T01:47:25.218Z,37.83
2018-12-29T01:49:53.404Z,38.13
2018-12-29T01:52:21.587Z,35.30
2018-12-29T01:54:49.752Z,37.07
2018-12-29T01:57:18.220Z,40.47
2018-12-29T01:59:46.976Z,38.00
2018-12-29T02:02:15.115Z,31.30
2018-12-29T02:04:43.282Z,33.27
2018-12-29T02:07:11.440Z,33.90
2018-12-29T02:09:39.586Z,31.67
2018-12-29T02:12:07.730Z,36.80
2018-12-29T02:14:35.908Z,31.77
2018-12-29T02:17:04.101Z,36.57
2018-12-29T02:19:32.398Z,29.63
2018-12-29T02:22:00.535Z,33.90
2018-12-29T02:24:28.995Z,34.20
2018-12-29T02:26:57.526Z,31.63
2018-12-29T02:29:25.920Z,33.93
2018-12-29T02:31:54.058Z,32.57
2018-12-29T02:34:22.234Z,34.27
2018-12-29T02:36:50.742Z,33.37
2018-12-29T02:39:18.891Z,35.70
2018-12-29T02:41:47.436Z,38.17
2018-12-29T02:44:15.600Z,36.23
2018-12-29T02:46:44.094Z,34.40
2018-12-29T02:49:12.531Z,35.87
2018-12-29T02:51:40.711Z,36.17
2018-12-29T02:54:08.856Z,40.43
2018-12-29T02:56:37.004Z,37.43
2018-12-29T02:59:05.249Z,40.27
2018-12-29T03:01:33.734Z,36.17
2018-12-29T03:04:01.940Z,37.30
2018-12-29T03:06:30.139Z,40.93
2018-12-29T03:08:58.363Z,45.47
2018-12-29T03:11:26.540Z,49.20
2018-12-29T03:13:54.765Z,38.43
2018-12-29T03:16:22.940Z,35.83
2018-12-29T03:18:51.066Z,37.53
2018-12-29T03:21:19.208Z,35.77
2018-12-29T03:23:47.366Z,41.23
2018-12-29T03:26:15.848Z,39.10
2018-12-29T03:28:44.320Z,41.80
2018-12-29T03:31:12.821Z,40.40
2018-12-29T03:33:41.035Z,38.50
2018-12-29T03:36:09.464Z,44.30
2018-12-29T03:38:37.700Z,38.73
2018-12-29T03:41:05.840Z,40.87
2018-12-29T03:43:33.989Z,39.03
2018-12-29T03:46:02.174Z,39.47
2018-12-29T03:48:30.741Z,39.13
2018-12-29T03:50:59.234Z,39.60
2018-12-29T03:53:27.397Z,38.37
2018-12-29T03:55:55.534Z,39.50
2018-12-29T03:58:23.719Z,42.47
2018-12-29T04:00:51.889Z,41.97
2018-12-29T04:03:20.021Z,40.93
2018-12-29T04:05:48.189Z,38.90
2018-12-29T04:08:16.642Z,40.70
2018-12-29T04:10:45.428Z,37.00
2018-12-29T04:13:13.561Z,39.70
2018-12-29T04:15:41.977Z,41.20
2018-12-29T04:18:10.123Z,41.57
2018-12-29T04:20:38.269Z,45.73
2018-12-29T04:23:06.414Z,38.87
2018-12-29T04:25:34.575Z,43.53
2018-12-29T04:28:03.043Z,41.47
2018-12-29T04:30:31.199Z,38.10
2018-12-29T04:32:59.725Z,40.33
2018-12-29T04:35:27.926Z,43.67
2018-12-29T04:37:56.360Z,43.53
2018-12-29T04:40:24.843Z,43.97
2018-12-29T04:42:53.015Z,42.00
2018-12-29T04:45:21.170Z,42.40
2018-12-29T04:47:49.308Z,45.87
2018-12-29T04:50:17.830Z,45.50
2018-12-29T04:52:46.322Z,45.77
2018-12-29T04:55:14.479Z,43.80
2018-12-29T04:57:42.647Z,45.63
2018-12-29T05:00:10.790Z,47.40
2018-12-29T05:02:38.935Z,45.63
2018-12-29T05:05:07.409Z,42.67
2018-12-29T05:07:35.655Z,45.73
2018-12-29T05:10:04.687Z,47.17
2018-12-29T05:12:32.827Z,51.73
2018-12-29T05:15:01.005Z,54.27
2018-12-29T05:17:29.605Z,50.07
2018-12-29T05:19:57.754Z,51.20
2018-12-29T05:22:25.915Z,54.73
2018-12-29T05:24:54.048Z,51.03
2018-12-29T05:27:22.543Z,49.87
2018-12-29T05:29:50.973Z,45.70
2018-12-29T05:32:19.124Z,43.80
2018-12-29T05:34:47.376Z,51.87
2018-12-29T05:37:15.521Z,44.37
2018-12-29T05:39:43.695Z,44.67
2018-12-29T05:42:11.832Z,46.03
2018-12-29T05:44:39.998Z,47.83
2018-12-29T05:47:08.139Z,47.43
2018-12-29T05:49:36.273Z,49.63
2018-12-29T05:52:04.448Z,47.83
2018-12-29T05:54:32.914Z,46.90
2018-12-29T05:57:01.387Z,44.77
2018-12-29T05:59:29.538Z,48.67
2018-12-29T06:01:57.683Z,47.67
2018-12-29T06:04:25.873Z,49.27
2018-12-29T06:06:54.277Z,51.37
2018-12-29T06:09:22.473Z,50.23
2018-12-29T06:11:50.639Z,50.50
2018-12-29T06:14:18.782Z,46.20
2018-12-29T06:16:47.023Z,53.10
2018-12-29T06:19:15.520Z,46.13
2018-12-29T06:21:43.685Z,50.53
2018-12-29T06:24:12.119Z,51.47
2018-12-29T06:26:40.262Z,46.00
2018-12-29T06:29:08.422Z,49.50
2018-12-29T06:31:36.569Z,47.90
2018-12-29T06:34:04.740Z,57.13
2018-12-29T06:36:32.893Z,52.53
2018-12-29T06:39:01.073Z,52.17
2018-12-29T06:41:29.217Z,59.03
2018-12-29T06:43:57.370Z,60.70
2018-12-29T06:46:26.202Z,50.63
2018-12-29T06:48:54.341Z,51.10
2018-12-29T06:51:22.503Z,57.33
2018-12-29T06:53:50.651Z,51.10
2018-12-29T06:56:18.815Z,50.90
2018-12-29T06:58:47.324Z,51.90
2018-12-29T07:01:15.480Z,65.07
2018-12-29T07:03:43.649Z,51.77
2018-12-29T07:06:11.797Z,52.37
2018-12-29T07:08:39.997Z,53.80
2018-12-29T07:11:08.198Z,54.80
2018-12-29T07:13:36.658Z,56.47
2018-12-29T07:16:04.869Z,48.00
2018-12-29T07:18:33.004Z,49.93
2018-12-29T07:21:01.165Z,48.37
2018-12-29T07:23:29.674Z,46.77
2018-12-29T07:25:57.815Z,54.47
2018-12-29T07:28:25.966Z,51.23
2018-12-29T07:30:54.127Z,48.60
2018-12-29T07:33:22.300Z,46.37
2018-12-29T07:35:50.784Z,48.63
2018-12-29T07:38:18.931Z,50.40
2018-12-29T07:40:47.085Z,50.87
2018-12-29T07:43:15.228Z,45.70
2018-12-29T07:45:43.385Z,42.33
2018-12-29T07:48:11.568Z,45.27
2018-12-29T07:50:40.106Z,43.70
2018-12-29T07:53:08.265Z,46.23
2018-12-29T07:55:36.423Z,46.53
2018-12-29T07:58:04.572Z,57.03
2018-12-29T08:00:32.725Z,54.13
2018-12-29T08:03:00.899Z,55.77
2018-12-29T08:05:29.376Z,52.17
2018-12-29T08:07:57.515Z,43.30
2018-12-29T08:10:25.696Z,43.80
2018-12-29T08:12:53.829Z,41.53
2018-12-29T08:15:21.986Z,44.50
2018-12-29T08:17:50.434Z,46.07
2018-12-29T08:20:18.579Z,42.00
2018-12-29T08:22:46.727Z,48.50
2018-12-29T08:25:14.894Z,40.00
2018-12-29T08:27:43.052Z,39.10
2018-12-29T08:30:11.221Z,42.97
2018-12-29T08:32:39.382Z,38.00
2018-12-29T08:35:08.273Z,39.87
2018-12-29T08:37:36.455Z,41.67
2018-12-29T08:40:05.056Z,42.83
2018-12-29T08:42:33.201Z,41.27
2018-12-29T08:45:01.382Z,42.90
2018-12-29T08:47:29.560Z,40.37
2018-12-29T08:49:58.052Z,40.43
2018-12-29T08:52:26.177Z,42.77
2018-12-29T08:54:54.384Z,39.50
2018-12-29T08:57:22.869Z,41.17
2018-12-29T08:59:51.358Z,47.30
2018-12-29T09:02:19.493Z,45.57
2018-12-29T09:04:47.647Z,46.23
2018-12-29T09:07:15.775Z,46.60
2018-12-29T09:09:43.969Z,47.97
2018-12-29T09:12:12.090Z,43.80
2018-12-29T09:14:40.555Z,42.40
2018-12-29T09:17:12.177Z,42.50
2018-12-29T09:19:38.606Z,41.20
2018-12-29T09:22:06.757Z,50.00
2018-12-29T09:24:34.992Z,42.63
2018-12-29T09:27:03.141Z,41.47
2018-12-29T09:29:31.289Z,40.80
2018-12-29T09:31:59.519Z,42.50
2018-12-29T09:34:27.696Z,44.33
2018-12-29T09:36:55.828Z,45.60
2018-12-29T09:39:23.986Z,44.90
2018-12-29T09:41:52.142Z,43.07
2018-12-29T09:44:20.309Z,41.67
2018-12-29T09:46:48.482Z,45.97
2018-12-29T09:49:16.684Z,44.23
2018-12-29T09:51:45.247Z,44.33
2018-12-29T09:54:13.471Z,40.97
2018-12-29T09:56:41.641Z,45.17
2018-12-29T09:59:09.805Z,36.33
2018-12-29T10:01:37.968Z,41.33
2018-12-29T10:04:06.144Z,37.00
2018-12-29T10:06:34.285Z,39.67
2018-12-29T10:09:04.195Z,33.97
2018-12-29T10:11:32.371Z,36.73
2018-12-29T10:14:00.531Z,35.37
2018-12-29T10:16:28.668Z,37.60
2018-12-29T10:18:57.110Z,38.73
2018-12-29T10:21:25.271Z,35.60
2018-12-29T10:23:53.437Z,38.37
2018-12-29T10:26:21.596Z,34.37
2018-12-29T10:28:49.742Z,36.73
2018-12-29T10:31:17.896Z,38.13
2018-12-29T10:33:46.102Z,36.07
2018-12-29T10:36:14.233Z,37.40
2018-12-29T10:38:42.382Z,41.53
2018-12-29T10:41:10.570Z,35.97
2018-12-29T10:43:38.727Z,37.23
2018-12-29T10:46:07.195Z,42.00
2018-12-29T10:48:35.361Z,36.80
2018-12-29T10:51:03.505Z,38.57
2018-12-29T10:53:31.681Z,36.87
2018-12-29T10:56:00.106Z,40.03
2018-12-29T10:58:28.276Z,44.37
2018-12-29T11:00:56.526Z,35.53
2018-12-29T11:03:24.721Z,37.23
2018-12-29T11:05:52.900Z,37.37
2018-12-29T11:08:21.032Z,39.97
2018-12-29T11:10:49.192Z,38.10
2018-12-29T11:13:17.669Z,36.07
2018-12-29T11:15:46.173Z,34.47
2018-12-29T11:18:14.338Z,36.80
2018-12-29T11:20:43.189Z,41.53
2018-12-29T11:23:11.691Z,34.63
2018-12-29T11:25:39.839Z,38.57
2018-12-29T11:28:08.250Z,35.37
2018-12-29T11:30:36.417Z,40.50
2018-12-29T11:33:04.605Z,37.43
2018-12-29T11:35:32.731Z,41.43
2018-12-29T11:38:01.144Z,42.17
2018-12-29T11:40:29.289Z,36.47
2018-12-29T11:42:57.455Z,35.77
2018-12-29T11:45:25.613Z,40.63
2018-12-29T11:47:54.087Z,36.87
2018-12-29T11:50:22.262Z,35.20
2018-12-29T11:52:50.392Z,32.87
2018-12-29T11:55:18.648Z,37.83
2018-12-29T11:57:47.137Z,37.20
2018-12-29T12:00:15.559Z,35.80
2018-12-29T12:02:43.786Z,34.57
2018-12-29T12:05:12.026Z,33.00
2018-12-29T12:07:40.496Z,46.03
2018-12-29T12:10:08.718Z,34.03
2018-12-29T12:12:37.049Z,35.07
2018-12-29T12:15:05.763Z,34.67
2018-12-29T12:17:34.030Z,33.57
2018-12-29T12:20:02.249Z,39.57
2018-12-29T12:22:30.796Z,35.47
2018-12-29T12:24:59.336Z,42.53
2018-12-29T12:27:27.637Z,36.13
2018-12-29T12:29:56.182Z,33.17
2018-12-29T12:32:24.426Z,39.87
2018-12-29T12:34:53.114Z,36.00
2018-12-29T12:37:21.338Z,33.67
2018-12-29T12:39:49.861Z,35.27
2018-12-29T12:42:18.072Z,35.90
2018-12-29T12:44:46.247Z,32.03
2018-12-29T12:47:14.458Z,33.73
2018-12-29T12:49:42.630Z,36.97
2018-12-29T12:52:10.835Z,32.30
2018-12-29T12:54:40.793Z,33.70
2018-12-29T12:57:09.993Z,33.70
2018-12-29T12:59:38.456Z,33.57
2018-12-29T13:02:06.653Z,33.13
2018-12-29T13:04:34.829Z,33.73
2018-12-29T13:07:02.998Z,35.03
2018-12-29T13:09:31.557Z,32.57
2018-12-29T13:12:00.039Z,32.70
2018-12-29T13:14:28.278Z,33.70
2018-12-29T13:16:56.766Z,36.80
2018-12-29T13:19:28.511Z,33.03
2018-12-29T13:21:54.938Z,35.03
2018-12-29T13:24:23.433Z,34.87
2018-12-29T13:26:52.024Z,34.73
2018-12-29T13:29:20.178Z,30.70
2018-12-29T13:31:48.408Z,32.23
2018-12-29T13:34:16.552Z,31.73
2018-12-29T13:36:44.797Z,33.77
2018-12-29T13:39:12.957Z,33.67
2018-12-29T13:41:45.286Z,33.87
2018-12-29T13:44:13.742Z,33.00
2018-12-29T13:46:41.898Z,33.37
2018-12-29T13:49:10.466Z,32.37
2018-12-29T13:51:38.683Z,37.03
2018-12-29T13:54:06.857Z,35.60
2018-12-29T13:56:35.053Z,35.97
2018-12-29T13:59:03.328Z,35.80
2018-12-29T14:01:31.546Z,39.20
2018-12-29T14:03:59.770Z,32.50
2018-12-29T14:06:28.021Z,36.03
2018-12-29T14:08:56.188Z,39.23
2018-12-29T14:11:24.318Z,38.77
2018-12-29T14:13:52.813Z,38.47
2018-12-29T14:16:21.335Z,37.47
2018-12-29T14:18:49.565Z,34.87
2018-12-29T14:21:18.087Z,38.47
2018-12-29T14:23:46.314Z,40.40
2018-12-29T14:26:14.836Z,38.00
2018-12-29T14:28:43.081Z,36.43
2018-12-29T14:31:11.241Z,36.40
2018-12-29T14:33:39.507Z,34.43
2018-12-29T14:36:07.709Z,34.87
2018-12-29T14:38:35.910Z,35.57
2018-12-29T14:41:04.133Z,34.13
2018-12-29T14:43:32.271Z,35.50
2018-12-29T14:46:00.535Z,34.27
2018-12-29T14:48:35.693Z,35.70
2018-12-29T14:50:58.638Z,33.27
2018-12-29T14:53:26.879Z,31.30
2018-12-29T14:55:55.379Z,30.63
2018-12-29T14:58:23.538Z,30.70
2018-12-29T15:00:51.786Z,29.33
2018-12-29T15:03:19.917Z,33.53
2018-12-29T15:05:48.101Z,31.43
2018-12-29T15:08:16.310Z,32.57
2018-12-29T15:10:44.486Z,32.63
2018-12-29T15:13:12.902Z,34.43
2018-12-29T15:15:41.149Z,32.20
2018-12-29T15:18:10.048Z,27.60
2018-12-29T15:20:38.555Z,30.73
2018-12-29T15:23:07.177Z,29.40
2018-12-29T15:25:35.381Z,27.80
2018-12-29T15:28:03.623Z,30.37
2018-12-29T15:30:32.139Z,31.43
2018-12-29T15:33:00.375Z,31.07
2018-12-29T15:35:28.923Z,29.40
2018-12-29T15:37:57.447Z,30.17
2018-12-29T15:40:25.666Z,30.60
2018-12-29T15:42:53.915Z,33.93
2018-12-29T15:45:22.215Z,33.83
2018-12-29T15:47:50.707Z,30.37
2018-12-29T15:50:18.915Z,32.07
2018-12-29T15:52:47.462Z,33.60
2018-12-29T15:55:15.921Z,31.73
2018-12-29T15:57:44.159Z,36.93
2018-12-29T16:00:12.746Z,31.30
2018-12-29T16:02:41.276Z,30.63
2018-12-29T16:05:09.894Z,30.10
2018-12-29T16:07:38.830Z,30.87
2018-12-29T16:10:07.619Z,31.90
2018-12-29T16:12:36.357Z,33.43
2018-12-29T16:15:05.177Z,31.43
2018-12-29T16:17:33.420Z,29.67
2018-12-29T16:20:01.636Z,30.47
2018-12-29T16:22:29.860Z,28.27
2018-12-29T16:24:58.071Z,30.97
2018-12-29T16:27:26.330Z,30.63
2018-12-29T16:29:54.535Z,35.33
2018-12-29T16:32:22.770Z,31.83
2018-12-29T16:34:51.303Z,29.80
2018-12-29T16:37:19.902Z,30.87
2018-12-29T16:39:48.156Z,29.13
2018-12-29T16:42:16.372Z,29.90
2018-12-29T16:44:44.592Z,26.00
2018-12-29T16:47:12.813Z,28.00
2018-12-29T16:49:41.710Z,29.93
2018-12-29T16:52:09.952Z,23.13
2018-12-29T16:54:39.805Z,27.73
2018-12-29T16:57:08.390Z,28.77
2018-12-29T16:59:36.702Z,25.67
2018-12-29T17:02:04.926Z,24.87
2018-12-29T17:04:33.144Z,26.07
2018-12-29T17:07:01.397Z,30.20
2018-12-29T17:09:29.954Z,24.37
2018-12-29T17:11:58.217Z,27.47
2018-12-29T17:14:26.446Z,25.17
2018-12-29T17:16:54.983Z,29.80
2018-12-29T17:19:23.490Z,27.10
2018-12-29T17:21:51.685Z,27.77
2018-12-29T17:24:19.939Z,36.67
2018-12-29T17:26:48.152Z,35.93
2018-12-29T17:29:17.077Z,35.50
2018-12-29T17:31:45.301Z,43.53
2018-12-29T17:34:13.555Z,43.40
2018-12-29T17:36:42.212Z,53.37
2018-12-29T17:39:10.530Z,53.53
2018-12-29T17:41:39.124Z,61.47
2018-12-29T17:44:07.332Z,61.70
2018-12-29T17:46:35.849Z,69.10
2018-12-29T17:49:04.499Z,64.40
2018-12-29T17:51:32.630Z,72.03
2018-12-29T17:54:01.213Z,71.77
2018-12-29T17:56:29.923Z,68.80
2018-12-29T17:58:58.464Z,62.20
2018-12-29T18:01:26.672Z,55.53
2018-12-29T18:03:55.221Z,61.93
2018-12-29T18:06:24.095Z,63.07
2018-12-29T18:08:52.606Z,58.57
2018-12-29T18:11:21.192Z,55.93
2018-12-29T18:13:49.398Z,54.10
2018-12-29T18:16:18.350Z,60.57
2018-12-29T18:18:46.566Z,59.57
2018-12-29T18:21:14.802Z,47.37
2018-12-29T18:23:43.399Z,49.20
2018-12-29T18:26:11.605Z,53.57
2018-12-29T18:28:39.836Z,53.50
2018-12-29T18:31:08.360Z,48.67
2018-12-29T18:33:37.293Z,50.93
2018-12-29T18:36:05.701Z,48.80
2018-12-29T18:38:34.248Z,44.77
2018-12-29T18:41:02.462Z,43.93
2018-12-29T18:43:30.747Z,42.53
2018-12-29T18:45:58.972Z,45.33
2018-12-29T18:48:27.208Z,37.83
2018-12-29T18:50:56.078Z,39.97
2018-12-29T18:53:24.609Z,41.63
2018-12-29T18:55:52.888Z,39.83
2018-12-29T18:58:21.112Z,39.37
2018-12-29T19:00:49.330Z,41.27
2018-12-29T19:03:17.891Z,41.77
2018-12-29T19:05:46.165Z,40.27
2018-12-29T19:08:14.682Z,38.63
2018-12-29T19:10:43.038Z,41.13
2018-12-29T19:13:11.815Z,43.17
2018-12-29T19:15:40.695Z,41.53
2018-12-29T19:18:08.919Z,43.47
2018-12-29T19:20:37.137Z,43.63
2018-12-29T19:23:05.697Z,37.60
2018-12-29T19:25:33.954Z,41.67
2018-12-29T19:28:02.921Z,39.30
2018-12-29T19:30:31.458Z,42.33
2018-12-29T19:32:59.872Z,41.30
2018-12-29T19:35:28.149Z,46.27
2018-12-29T19:37:56.359Z,41.30
2018-12-29T19:40:25.355Z,46.73
2018-12-29T19:42:54.037Z,47.67
2018-12-29T19:45:22.634Z,43.80
2018-12-29T19:47:51.618Z,45.43
2018-12-29T19:50:20.301Z,42.90
2018-12-29T19:52:48.555Z,44.93
2018-12-29T19:55:16.759Z,42.70
2018-12-29T19:57:44.939Z,40.20
2018-12-29T20:00:13.620Z,36.93
2018-12-29T20:02:42.303Z,37.97
2018-12-29T20:05:10.713Z,39.10
2018-12-29T20:07:38.902Z,39.63
2018-12-29T20:10:07.419Z,34.73
2018-12-29T20:12:35.896Z,39.30
2018-12-29T20:15:05.610Z,35.00
2018-12-29T20:17:34.994Z,37.17
2018-12-29T20:20:04.797Z,38.20
2018-12-29T20:22:33.017Z,35.57
2018-12-29T20:25:01.232Z,34.13
2018-12-29T20:27:29.485Z,33.17
2018-12-29T20:29:58.040Z,36.10
2018-12-29T20:32:26.617Z,35.37
2018-12-29T20:34:55.417Z,34.37
2018-12-29T20:37:23.992Z,32.50
2018-12-29T20:39:52.857Z,32.57
2018-12-29T20:42:21.468Z,36.17
2018-12-29T20:44:50.016Z,30.80
2018-12-29T20:47:18.634Z,28.87
2018-12-29T20:49:47.231Z,32.57
2018-12-29T20:52:15.822Z,29.00
2018-12-29T20:54:44.094Z,28.40
2018-12-29T20:57:12.937Z,27.80
2018-12-29T20:59:41.525Z,26.10
2018-12-29T21:02:09.798Z,25.37
2018-12-29T21:04:38.345Z,27.20
2018-12-29T21:07:06.917Z,23.33
2018-12-29T21:09:35.846Z,23.50
2018-12-29T21:12:04.385Z,22.87
2018-12-29T21:14:32.963Z,21.27
2018-12-29T21:17:01.454Z,27.50
2018-12-29T21:19:30.028Z,25.10
2018-12-29T21:21:58.270Z,22.23
2018-12-29T21:24:26.961Z,21.07
2018-12-29T21:26:55.180Z,22.70
2018-12-29T21:29:23.812Z,22.80
2018-12-29T21:31:52.055Z,23.27
2018-12-29T21:34:20.952Z,24.90
2018-12-29T21:36:49.551Z,27.40
2018-12-29T21:39:18.401Z,24.97
2018-12-29T21:41:47.032Z,28.37
2018-12-29T21:44:15.593Z,30.80
2018-12-29T21:46:44.190Z,25.80
2018-12-29T21:49:12.436Z,28.43
2018-12-29T21:51:40.975Z,29.27
2018-12-29T21:54:09.508Z,29.00
2018-12-29T21:56:38.074Z,33.90
2018-12-29T21:59:06.340Z,29.17
2018-12-29T22:01:34.817Z,30.50
2018-12-29T22:04:03.425Z,27.77
2018-12-29T22:06:32.034Z,30.60
2018-12-29T22:09:00.605Z,28.73
2018-12-29T22:11:28.852Z,27.33
2018-12-29T22:13:57.423Z,25.47
2018-12-29T22:16:25.977Z,25.37
2018-12-29T22:18:54.555Z,23.93
2018-12-29T22:21:23.033Z,28.13
2018-12-29T22:23:51.625Z,25.00
2018-12-29T22:26:20.438Z,21.53
2018-12-29T22:28:48.979Z,25.83
2018-12-29T22:31:17.493Z,22.93
2018-12-29T22:33:46.334Z,21.47
2018-12-29T22:36:14.946Z,22.23
2018-12-29T22:38:43.166Z,23.60
2018-12-29T22:41:11.785Z,19.37
2018-12-29T22:43:39.995Z,21.17
2018-12-29T22:46:08.465Z,22.23
2018-12-29T22:48:37.057Z,19.83
2018-12-29T22:51:05.272Z,19.03
2018-12-29T22:53:33.816Z,21.50
2018-12-29T22:56:02.000Z,19.73
2018-12-29T22:58:30.600Z,21.90
2018-12-29T23:01:00.624Z,24.70
2018-12-29T23:03:29.903Z,21.93
2018-12-29T23:05:58.448Z,24.70
2018-12-29T23:08:27.040Z,24.67
2018-12-29T23:10:56.032Z,25.60
2018-12-29T23:13:24.936Z,24.00
2018-12-29T23:15:53.488Z,25.80
2018-12-29T23:18:22.003Z,26.23
2018-12-29T23:20:50.595Z,27.03
2018-12-29T23:23:19.177Z,26.80
2018-12-29T23:25:48.053Z,23.10
2018-12-29T23:28:16.615Z,27.30
2018-12-29T23:30:45.263Z,31.90
2018-12-29T23:33:13.496Z,25.97
2018-12-29T23:35:41.713Z,26.40
2018-12-29T23:38:10.970Z,26.07
2018-12-29T23:40:39.549Z,27.33
2018-12-29T23:43:08.099Z,30.53
2018-12-29T23:45:36.973Z,26.23
2018-12-29T23:48:05.557Z,28.70
2018-12-29T23:50:33.776Z,25.57
2018-12-29T23:53:02.669Z,33.03
2018-12-29T23:55:31.298Z,28.50
2018-12-29T23:57:59.903Z,29.17
